sensor_id;sensor_type;location;lat;lon;timestamp;P1;durP1;ratioP1;P2;durP2;ratioP2
611;SDS011;293;53.888;11.464;2022-11-18T00:01:46;17.20;;;13.15;;
611;SDS011;293;53.888;11.464;2022-11-18T00:04:13;14.02;;;12.57;;
611;SDS011;293;53.888;11.464;2022-11-18T00:06:40;14.50;;;12.32;;
611;SDS011;293;53.888;11.464;2022-11-18T00:09:07;14.43;;;12.40;;
611;SDS011;293;53.888;11.464;2022-11-18T00:11:34;17.15;;;13.70;;
611;SDS011;293;53.888;11.464;2022-11-18T00:14:21;15.65;;;13.95;;
611;SDS011;293;53.888;11.464;2022-11-18T00:16:51;17.38;;;13.30;;
611;SDS011;293;53.888;11.464;2022-11-18T00:19:20;15.60;;;14.02;;
611;SDS011;293;53.888;11.464;2022-11-18T00:21:48;17.33;;;14.65;;
611;SDS011;293;53.888;11.464;2022-11-18T00:24:15;15.50;;;13.38;;
611;SDS011;293;53.888;11.464;2022-11-18T00:26:43;16.80;;;13.70;;
611;SDS011;293;53.888;11.464;2022-11-18T00:29:10;16.48;;;14.02;;
611;SDS011;293;53.888;11.464;2022-11-18T00:31:38;13.82;;;12.27;;
611;SDS011;293;53.888;11.464;2022-11-18T00:34:06;17.27;;;14.20;;
611;SDS011;293;53.888;11.464;2022-11-18T00:36:33;20.50;;;14.55;;
611;SDS011;293;53.888;11.464;2022-11-18T00:39:00;15.73;;;13.00;;
611;SDS011;293;53.888;11.464;2022-11-18T00:41:27;18.60;;;13.95;;
611;SDS011;293;53.888;11.464;2022-11-18T00:44:15;14.80;;;12.85;;
611;SDS011;293;53.888;11.464;2022-11-18T00:46:42;15.00;;;13.13;;
611;SDS011;293;53.888;11.464;2022-11-18T00:49:09;12.45;;;10.90;;
611;SDS011;293;53.888;11.464;2022-11-18T00:51:36;14.68;;;13.15;;
611;SDS011;293;53.888;11.464;2022-11-18T00:54:03;16.08;;;13.35;;
611;SDS011;293;53.888;11.464;2022-11-18T00:56:30;14.98;;;12.43;;
611;SDS011;293;53.888;11.464;2022-11-18T00:58:57;12.85;;;11.48;;
611;SDS011;293;53.888;11.464;2022-11-18T01:01:24;14.43;;;12.88;;
611;SDS011;293;53.888;11.464;2022-11-18T01:03:53;15.88;;;13.23;;
611;SDS011;293;53.888;11.464;2022-11-18T01:06:20;14.45;;;12.40;;
611;SDS011;293;53.888;11.464;2022-11-18T01:08:47;17.58;;;13.13;;
611;SDS011;293;53.888;11.464;2022-11-18T01:11:14;15.88;;;13.77;;
611;SDS011;293;53.888;11.464;2022-11-18T01:13:59;14.55;;;13.05;;
611;SDS011;293;53.888;11.464;2022-11-18T01:16:26;18.25;;;13.75;;
611;SDS011;293;53.888;11.464;2022-11-18T01:18:56;13.32;;;11.93;;
611;SDS011;293;53.888;11.464;2022-11-18T01:21:23;14.93;;;13.15;;
611;SDS011;293;53.888;11.464;2022-11-18T01:23:50;12.35;;;11.10;;
611;SDS011;293;53.888;11.464;2022-11-18T01:26:17;13.52;;;10.93;;
611;SDS011;293;53.888;11.464;2022-11-18T01:28:44;14.02;;;11.50;;
611;SDS011;293;53.888;11.464;2022-11-18T01:31:11;19.58;;;13.48;;
611;SDS011;293;53.888;11.464;2022-11-18T01:33:40;13.73;;;12.15;;
611;SDS011;293;53.888;11.464;2022-11-18T01:36:14;17.48;;;14.30;;
611;SDS011;293;53.888;11.464;2022-11-18T01:38:43;19.55;;;14.50;;
611;SDS011;293;53.888;11.464;2022-11-18T01:41:10;19.23;;;14.10;;
611;SDS011;293;53.888;11.464;2022-11-18T01:43:48;20.27;;;14.57;;
611;SDS011;293;53.888;11.464;2022-11-18T01:46:17;18.70;;;14.45;;
611;SDS011;293;53.888;11.464;2022-11-18T01:48:44;21.77;;;13.10;;
611;SDS011;293;53.888;11.464;2022-11-18T01:51:15;22.02;;;15.38;;
611;SDS011;293;53.888;11.464;2022-11-18T01:53:45;22.30;;;15.65;;
611;SDS011;293;53.888;11.464;2022-11-18T01:56:16;25.85;;;16.17;;
611;SDS011;293;53.888;11.464;2022-11-18T01:58:47;25.55;;;16.77;;
611;SDS011;293;53.888;11.464;2022-11-18T02:01:18;25.20;;;18.17;;
611;SDS011;293;53.888;11.464;2022-11-18T02:03:45;23.70;;;15.25;;
611;SDS011;293;53.888;11.464;2022-11-18T02:06:15;24.05;;;16.70;;
611;SDS011;293;53.888;11.464;2022-11-18T02:08:42;23.75;;;16.52;;
611;SDS011;293;53.888;11.464;2022-11-18T02:11:10;23.98;;;14.88;;
611;SDS011;293;53.888;11.464;2022-11-18T02:14:00;23.17;;;16.25;;
611;SDS011;293;53.888;11.464;2022-11-18T02:16:37;33.10;;;17.25;;
611;SDS011;293;53.888;11.464;2022-11-18T02:19:16;29.58;;;18.88;;
611;SDS011;293;53.888;11.464;2022-11-18T02:22:04;30.20;;;17.77;;
611;SDS011;293;53.888;11.464;2022-11-18T02:24:46;28.63;;;18.55;;
611;SDS011;293;53.888;11.464;2022-11-18T02:30:32;29.23;;;19.63;;
611;SDS011;293;53.888;11.464;2022-11-18T02:33:05;30.08;;;19.80;;
611;SDS011;293;53.888;11.464;2022-11-18T02:35:38;33.67;;;20.40;;
611;SDS011;293;53.888;11.464;2022-11-18T02:38:07;38.22;;;23.55;;
611;SDS011;293;53.888;11.464;2022-11-18T02:40:37;32.83;;;20.13;;
611;SDS011;293;53.888;11.464;2022-11-18T02:43:09;39.95;;;22.73;;
611;SDS011;293;53.888;11.464;2022-11-18T02:45:41;35.55;;;22.10;;
611;SDS011;293;53.888;11.464;2022-11-18T02:48:12;32.35;;;20.63;;
611;SDS011;293;53.888;11.464;2022-11-18T02:50:40;42.70;;;23.38;;
611;SDS011;293;53.888;11.464;2022-11-18T02:53:09;36.85;;;22.23;;
611;SDS011;293;53.888;11.464;2022-11-18T02:55:40;41.67;;;22.73;;
611;SDS011;293;53.888;11.464;2022-11-18T02:58:08;31.02;;;20.85;;
611;SDS011;293;53.888;11.464;2022-11-18T03:00:37;42.40;;;24.65;;
611;SDS011;293;53.888;11.464;2022-11-18T03:05:52;34.83;;;21.02;;
611;SDS011;293;53.888;11.464;2022-11-18T03:08:31;44.50;;;23.13;;
611;SDS011;293;53.888;11.464;2022-11-18T03:11:05;32.38;;;21.42;;
611;SDS011;293;53.888;11.464;2022-11-18T03:13:40;35.78;;;20.27;;
611;SDS011;293;53.888;11.464;2022-11-18T03:16:16;40.42;;;23.67;;
611;SDS011;293;53.888;11.464;2022-11-18T03:18:49;40.60;;;22.02;;
611;SDS011;293;53.888;11.464;2022-11-18T03:21:20;34.70;;;21.65;;
611;SDS011;293;53.888;11.464;2022-11-18T03:23:54;43.58;;;24.60;;
611;SDS011;293;53.888;11.464;2022-11-18T03:26:30;42.17;;;23.00;;
611;SDS011;293;53.888;11.464;2022-11-18T03:29:01;36.85;;;21.33;;
611;SDS011;293;53.888;11.464;2022-11-18T03:31:34;38.50;;;22.65;;
611;SDS011;293;53.888;11.464;2022-11-18T03:34:06;38.78;;;22.63;;
611;SDS011;293;53.888;11.464;2022-11-18T03:36:38;36.40;;;21.00;;
611;SDS011;293;53.888;11.464;2022-11-18T03:39:08;34.20;;;20.48;;
611;SDS011;293;53.888;11.464;2022-11-18T03:41:38;32.38;;;19.27;;
611;SDS011;293;53.888;11.464;2022-11-18T03:44:09;49.08;;;23.38;;
611;SDS011;293;53.888;11.464;2022-11-18T03:46:43;39.97;;;22.67;;
611;SDS011;293;53.888;11.464;2022-11-18T03:49:16;40.83;;;20.27;;
611;SDS011;293;53.888;11.464;2022-11-18T03:51:46;38.08;;;22.67;;
611;SDS011;293;53.888;11.464;2022-11-18T03:54:17;46.78;;;23.77;;
611;SDS011;293;53.888;11.464;2022-11-18T03:56:48;47.10;;;26.10;;
611;SDS011;293;53.888;11.464;2022-11-18T03:59:22;36.90;;;20.60;;
611;SDS011;293;53.888;11.464;2022-11-18T04:01:54;38.70;;;21.55;;
611;SDS011;293;53.888;11.464;2022-11-18T04:04:26;42.67;;;21.52;;
611;SDS011;293;53.888;11.464;2022-11-18T04:06:55;37.22;;;21.48;;
611;SDS011;293;53.888;11.464;2022-11-18T04:09:28;38.85;;;20.30;;
611;SDS011;293;53.888;11.464;2022-11-18T04:12:01;39.55;;;21.85;;
611;SDS011;293;53.888;11.464;2022-11-18T04:14:30;33.13;;;17.85;;
611;SDS011;293;53.888;11.464;2022-11-18T04:16:59;31.35;;;20.83;;
611;SDS011;293;53.888;11.464;2022-11-18T04:19:31;28.38;;;17.88;;
611;SDS011;293;53.888;11.464;2022-11-18T04:21:58;31.67;;;19.35;;
611;SDS011;293;53.888;11.464;2022-11-18T04:24:25;33.40;;;18.50;;
611;SDS011;293;53.888;11.464;2022-11-18T04:26:52;32.08;;;19.48;;
611;SDS011;293;53.888;11.464;2022-11-18T04:29:19;25.33;;;17.80;;
611;SDS011;293;53.888;11.464;2022-11-18T04:31:46;32.22;;;17.90;;
611;SDS011;293;53.888;11.464;2022-11-18T04:34:13;23.38;;;15.45;;
611;SDS011;293;53.888;11.464;2022-11-18T04:36:42;35.15;;;18.30;;
611;SDS011;293;53.888;11.464;2022-11-18T04:39:08;23.05;;;15.85;;
611;SDS011;293;53.888;11.464;2022-11-18T04:41:35;28.50;;;16.60;;
611;SDS011;293;53.888;11.464;2022-11-18T04:44:20;25.25;;;15.63;;
611;SDS011;293;53.888;11.464;2022-11-18T04:46:48;26.45;;;15.20;;
611;SDS011;293;53.888;11.464;2022-11-18T04:49:15;27.63;;;16.70;;
611;SDS011;293;53.888;11.464;2022-11-18T04:51:44;26.02;;;16.77;;
611;SDS011;293;53.888;11.464;2022-11-18T04:54:11;26.63;;;16.13;;
611;SDS011;293;53.888;11.464;2022-11-18T04:56:39;31.30;;;16.35;;
611;SDS011;293;53.888;11.464;2022-11-18T04:59:06;29.42;;;17.63;;
611;SDS011;293;53.888;11.464;2022-11-18T05:01:34;23.20;;;16.40;;
611;SDS011;293;53.888;11.464;2022-11-18T05:04:01;27.25;;;16.92;;
611;SDS011;293;53.888;11.464;2022-11-18T05:06:30;26.77;;;15.43;;
611;SDS011;293;53.888;11.464;2022-11-18T05:08:58;26.73;;;16.67;;
611;SDS011;293;53.888;11.464;2022-11-18T05:11:26;28.90;;;17.35;;
611;SDS011;293;53.888;11.464;2022-11-18T05:14:13;35.25;;;18.17;;
611;SDS011;293;53.888;11.464;2022-11-18T05:16:40;32.78;;;20.27;;
611;SDS011;293;53.888;11.464;2022-11-18T05:19:07;37.30;;;21.55;;
611;SDS011;293;53.888;11.464;2022-11-18T05:21:34;32.08;;;19.25;;
611;SDS011;293;53.888;11.464;2022-11-18T05:24:03;35.92;;;20.52;;
611;SDS011;293;53.888;11.464;2022-11-18T05:26:31;42.63;;;21.02;;
611;SDS011;293;53.888;11.464;2022-11-18T05:28:58;35.20;;;22.80;;
611;SDS011;293;53.888;11.464;2022-11-18T05:31:24;42.13;;;24.42;;
611;SDS011;293;53.888;11.464;2022-11-18T05:33:51;42.03;;;23.35;;
611;SDS011;293;53.888;11.464;2022-11-18T05:36:19;55.80;;;31.58;;
611;SDS011;293;53.888;11.464;2022-11-18T05:38:46;42.67;;;25.67;;
611;SDS011;293;53.888;11.464;2022-11-18T05:41:15;47.13;;;25.33;;
611;SDS011;293;53.888;11.464;2022-11-18T05:43:56;42.67;;;24.10;;
611;SDS011;293;53.888;11.464;2022-11-18T05:46:23;47.42;;;22.60;;
611;SDS011;293;53.888;11.464;2022-11-18T05:48:50;38.45;;;22.42;;
611;SDS011;293;53.888;11.464;2022-11-18T05:51:17;45.63;;;23.40;;
611;SDS011;293;53.888;11.464;2022-11-18T05:53:44;44.17;;;22.15;;
611;SDS011;293;53.888;11.464;2022-11-18T05:56:14;35.85;;;19.75;;
611;SDS011;293;53.888;11.464;2022-11-18T05:58:47;33.55;;;19.33;;
611;SDS011;293;53.888;11.464;2022-11-18T06:01:14;41.40;;;24.27;;
611;SDS011;293;53.888;11.464;2022-11-18T06:03:43;37.13;;;21.02;;
611;SDS011;293;53.888;11.464;2022-11-18T06:06:11;33.42;;;19.35;;
611;SDS011;293;53.888;11.464;2022-11-18T06:08:41;28.85;;;16.85;;
611;SDS011;293;53.888;11.464;2022-11-18T06:11:13;26.50;;;17.92;;
611;SDS011;293;53.888;11.464;2022-11-18T06:13:45;27.38;;;17.23;;
611;SDS011;293;53.888;11.464;2022-11-18T06:16:15;25.83;;;16.25;;
611;SDS011;293;53.888;11.464;2022-11-18T06:18:44;24.45;;;16.27;;
611;SDS011;293;53.888;11.464;2022-11-18T06:21:11;25.50;;;15.45;;
611;SDS011;293;53.888;11.464;2022-11-18T06:23:38;24.90;;;14.48;;
611;SDS011;293;53.888;11.464;2022-11-18T06:26:06;27.25;;;14.63;;
611;SDS011;293;53.888;11.464;2022-11-18T06:28:36;23.23;;;14.52;;
611;SDS011;293;53.888;11.464;2022-11-18T06:31:05;31.95;;;15.63;;
611;SDS011;293;53.888;11.464;2022-11-18T06:33:32;22.83;;;14.60;;
611;SDS011;293;53.888;11.464;2022-11-18T06:35:59;20.90;;;14.15;;
611;SDS011;293;53.888;11.464;2022-11-18T06:38:25;21.10;;;15.00;;
611;SDS011;293;53.888;11.464;2022-11-18T06:40:52;22.80;;;15.10;;
611;SDS011;293;53.888;11.464;2022-11-18T06:43:23;21.55;;;16.17;;
611;SDS011;293;53.888;11.464;2022-11-18T06:46:08;25.08;;;16.70;;
611;SDS011;293;53.888;11.464;2022-11-18T06:48:54;35.05;;;23.08;;
611;SDS011;293;53.888;11.464;2022-11-18T06:51:22;51.40;;;23.75;;
611;SDS011;293;53.888;11.464;2022-11-18T06:53:49;27.15;;;16.20;;
611;SDS011;293;53.888;11.464;2022-11-18T06:56:17;23.35;;;16.35;;
611;SDS011;293;53.888;11.464;2022-11-18T06:58:44;24.02;;;14.40;;
611;SDS011;293;53.888;11.464;2022-11-18T07:01:14;20.35;;;13.10;;
611;SDS011;293;53.888;11.464;2022-11-18T07:03:43;17.83;;;12.95;;
611;SDS011;293;53.888;11.464;2022-11-18T07:06:12;21.70;;;14.27;;
611;SDS011;293;53.888;11.464;2022-11-18T07:08:40;18.23;;;12.27;;
611;SDS011;293;53.888;11.464;2022-11-18T07:11:08;19.88;;;14.15;;
611;SDS011;293;53.888;11.464;2022-11-18T07:13:36;21.63;;;12.10;;
611;SDS011;293;53.888;11.464;2022-11-18T07:16:04;19.77;;;14.25;;
611;SDS011;293;53.888;11.464;2022-11-18T07:18:34;18.25;;;13.20;;
611;SDS011;293;53.888;11.464;2022-11-18T07:21:02;19.05;;;12.15;;
611;SDS011;293;53.888;11.464;2022-11-18T07:23:30;20.65;;;11.80;;
611;SDS011;293;53.888;11.464;2022-11-18T07:25:58;17.92;;;12.48;;
611;SDS011;293;53.888;11.464;2022-11-18T07:28:25;18.00;;;12.52;;
611;SDS011;293;53.888;11.464;2022-11-18T07:30:52;15.30;;;11.57;;
611;SDS011;293;53.888;11.464;2022-11-18T07:33:26;17.52;;;12.25;;
611;SDS011;293;53.888;11.464;2022-11-18T07:35:54;17.15;;;13.35;;
611;SDS011;293;53.888;11.464;2022-11-18T07:38:21;16.80;;;12.20;;
611;SDS011;293;53.888;11.464;2022-11-18T07:40:48;20.92;;;12.88;;
611;SDS011;293;53.888;11.464;2022-11-18T07:43:15;19.85;;;12.45;;
611;SDS011;293;53.888;11.464;2022-11-18T07:45:42;16.10;;;12.80;;
611;SDS011;293;53.888;11.464;2022-11-18T07:48:08;22.13;;;12.68;;
611;SDS011;293;53.888;11.464;2022-11-18T07:50:35;18.73;;;11.70;;
611;SDS011;293;53.888;11.464;2022-11-18T07:53:04;14.43;;;10.80;;
611;SDS011;293;53.888;11.464;2022-11-18T07:55:31;15.20;;;12.27;;
611;SDS011;293;53.888;11.464;2022-11-18T07:57:57;15.70;;;11.27;;
611;SDS011;293;53.888;11.464;2022-11-18T08:00:24;14.98;;;9.98;;
611;SDS011;293;53.888;11.464;2022-11-18T08:02:51;16.08;;;11.10;;
611;SDS011;293;53.888;11.464;2022-11-18T08:05:18;14.43;;;10.82;;
611;SDS011;293;53.888;11.464;2022-11-18T08:07:45;66.35;;;44.03;;
611;SDS011;293;53.888;11.464;2022-11-18T08:10:13;19.42;;;13.00;;
611;SDS011;293;53.888;11.464;2022-11-18T08:12:41;12.52;;;9.27;;
611;SDS011;293;53.888;11.464;2022-11-18T08:15:08;12.88;;;8.55;;
611;SDS011;293;53.888;11.464;2022-11-18T08:17:35;13.55;;;10.15;;
611;SDS011;293;53.888;11.464;2022-11-18T08:20:02;12.60;;;9.90;;
611;SDS011;293;53.888;11.464;2022-11-18T08:22:30;12.65;;;8.30;;
611;SDS011;293;53.888;11.464;2022-11-18T08:24:57;11.80;;;8.68;;
611;SDS011;293;53.888;11.464;2022-11-18T08:27:28;11.60;;;8.70;;
611;SDS011;293;53.888;11.464;2022-11-18T08:29:56;12.35;;;9.60;;
611;SDS011;293;53.888;11.464;2022-11-18T08:32:23;12.73;;;9.77;;
611;SDS011;293;53.888;11.464;2022-11-18T08:34:50;14.00;;;10.50;;
611;SDS011;293;53.888;11.464;2022-11-18T08:37:17;15.57;;;10.43;;
611;SDS011;293;53.888;11.464;2022-11-18T08:39:44;14.68;;;9.93;;
611;SDS011;293;53.888;11.464;2022-11-18T08:42:11;15.05;;;10.55;;
611;SDS011;293;53.888;11.464;2022-11-18T08:44:39;14.25;;;9.80;;
611;SDS011;293;53.888;11.464;2022-11-18T08:47:07;14.88;;;9.93;;
611;SDS011;293;53.888;11.464;2022-11-18T08:49:34;11.85;;;9.80;;
611;SDS011;293;53.888;11.464;2022-11-18T08:52:01;11.05;;;8.43;;
611;SDS011;293;53.888;11.464;2022-11-18T08:54:28;12.10;;;8.57;;
611;SDS011;293;53.888;11.464;2022-11-18T08:56:55;11.63;;;8.40;;
611;SDS011;293;53.888;11.464;2022-11-18T08:59:22;12.88;;;8.55;;
611;SDS011;293;53.888;11.464;2022-11-18T09:01:51;12.02;;;8.50;;
611;SDS011;293;53.888;11.464;2022-11-18T09:04:17;11.82;;;7.82;;
611;SDS011;293;53.888;11.464;2022-11-18T09:06:44;10.65;;;9.10;;
611;SDS011;293;53.888;11.464;2022-11-18T09:09:11;8.50;;;7.25;;
611;SDS011;293;53.888;11.464;2022-11-18T09:11:38;8.13;;;6.80;;
611;SDS011;293;53.888;11.464;2022-11-18T09:14:06;9.50;;;7.00;;
611;SDS011;293;53.888;11.464;2022-11-18T09:16:36;8.30;;;6.72;;
611;SDS011;293;53.888;11.464;2022-11-18T09:19:04;9.20;;;7.20;;
611;SDS011;293;53.888;11.464;2022-11-18T09:21:31;9.27;;;7.05;;
611;SDS011;293;53.888;11.464;2022-11-18T09:24:01;13.82;;;7.10;;
611;SDS011;293;53.888;11.464;2022-11-18T09:26:29;9.23;;;6.45;;
611;SDS011;293;53.888;11.464;2022-11-18T09:28:56;12.93;;;9.05;;
611;SDS011;293;53.888;11.464;2022-11-18T09:31:22;8.00;;;6.70;;
611;SDS011;293;53.888;11.464;2022-11-18T09:33:49;7.78;;;6.93;;
611;SDS011;293;53.888;11.464;2022-11-18T09:36:18;7.65;;;5.10;;
611;SDS011;293;53.888;11.464;2022-11-18T09:38:46;8.52;;;5.78;;
611;SDS011;293;53.888;11.464;2022-11-18T09:41:31;6.80;;;5.75;;
611;SDS011;293;53.888;11.464;2022-11-18T09:44:12;7.60;;;5.63;;
611;SDS011;293;53.888;11.464;2022-11-18T09:46:53;6.63;;;4.95;;
611;SDS011;293;53.888;11.464;2022-11-18T09:49:30;8.20;;;4.85;;
611;SDS011;293;53.888;11.464;2022-11-18T09:52:02;5.78;;;4.35;;
611;SDS011;293;53.888;11.464;2022-11-18T09:54:33;6.97;;;4.45;;
611;SDS011;293;53.888;11.464;2022-11-18T09:57:02;5.28;;;4.70;;
611;SDS011;293;53.888;11.464;2022-11-18T09:59:35;5.07;;;3.95;;
611;SDS011;293;53.888;11.464;2022-11-18T10:02:10;4.97;;;4.13;;
611;SDS011;293;53.888;11.464;2022-11-18T10:04:54;3.65;;;3.30;;
611;SDS011;293;53.888;11.464;2022-11-18T10:07:25;5.45;;;3.55;;
611;SDS011;293;53.888;11.464;2022-11-18T10:10:01;7.22;;;3.97;;
611;SDS011;293;53.888;11.464;2022-11-18T10:12:37;4.60;;;4.10;;
611;SDS011;293;53.888;11.464;2022-11-18T10:15:13;4.68;;;3.40;;
611;SDS011;293;53.888;11.464;2022-11-18T10:17:48;4.63;;;3.33;;
611;SDS011;293;53.888;11.464;2022-11-18T10:20:31;4.13;;;2.83;;
611;SDS011;293;53.888;11.464;2022-11-18T10:23:11;3.95;;;2.72;;
611;SDS011;293;53.888;11.464;2022-11-18T10:25:41;3.15;;;2.35;;
611;SDS011;293;53.888;11.464;2022-11-18T10:28:13;3.28;;;2.45;;
611;SDS011;293;53.888;11.464;2022-11-18T10:30:47;3.90;;;2.38;;
611;SDS011;293;53.888;11.464;2022-11-18T10:33:22;2.45;;;1.90;;
611;SDS011;293;53.888;11.464;2022-11-18T10:35:51;2.20;;;2.00;;
611;SDS011;293;53.888;11.464;2022-11-18T10:38:37;4.07;;;1.90;;
611;SDS011;293;53.888;11.464;2022-11-18T10:41:04;3.33;;;2.50;;
611;SDS011;293;53.888;11.464;2022-11-18T10:43:41;3.53;;;1.77;;
611;SDS011;293;53.888;11.464;2022-11-18T10:46:17;3.50;;;1.92;;
611;SDS011;293;53.888;11.464;2022-11-18T10:48:57;4.30;;;2.50;;
611;SDS011;293;53.888;11.464;2022-11-18T10:51:38;2.38;;;1.65;;
611;SDS011;293;53.888;11.464;2022-11-18T10:54:08;2.67;;;2.28;;
611;SDS011;293;53.888;11.464;2022-11-18T10:56:46;2.60;;;2.03;;
611;SDS011;293;53.888;11.464;2022-11-18T10:59:17;2.60;;;2.40;;
611;SDS011;293;53.888;11.464;2022-11-18T11:02:02;2.70;;;1.73;;
611;SDS011;293;53.888;11.464;2022-11-18T11:04:39;2.00;;;1.80;;
611;SDS011;293;53.888;11.464;2022-11-18T11:07:13;3.22;;;1.90;;
611;SDS011;293;53.888;11.464;2022-11-18T11:09:43;6.10;;;1.65;;
611;SDS011;293;53.888;11.464;2022-11-18T11:12:19;3.80;;;1.45;;
611;SDS011;293;53.888;11.464;2022-11-18T11:14:47;2.88;;;1.60;;
611;SDS011;293;53.888;11.464;2022-11-18T11:17:18;3.45;;;2.00;;
611;SDS011;293;53.888;11.464;2022-11-18T11:19:55;4.20;;;1.25;;
611;SDS011;293;53.888;11.464;2022-11-18T11:22:28;3.40;;;1.55;;
611;SDS011;293;53.888;11.464;2022-11-18T11:24:57;2.15;;;1.70;;
611;SDS011;293;53.888;11.464;2022-11-18T11:27:32;3.90;;;1.80;;
611;SDS011;293;53.888;11.464;2022-11-18T11:30:12;2.10;;;1.42;;
611;SDS011;293;53.888;11.464;2022-11-18T11:32:58;3.20;;;1.67;;
611;SDS011;293;53.888;11.464;2022-11-18T11:35:46;8.20;;;5.95;;
611;SDS011;293;53.888;11.464;2022-11-18T11:38:19;12.02;;;4.07;;
611;SDS011;293;53.888;11.464;2022-11-18T11:40:58;3.97;;;1.65;;
611;SDS011;293;53.888;11.464;2022-11-18T11:43:33;1.95;;;1.35;;
611;SDS011;293;53.888;11.464;2022-11-18T11:46:12;3.30;;;1.88;;
611;SDS011;293;53.888;11.464;2022-11-18T11:48:53;2.35;;;1.77;;
611;SDS011;293;53.888;11.464;2022-11-18T11:51:25;4.47;;;1.55;;
611;SDS011;293;53.888;11.464;2022-11-18T11:56:52;2.05;;;1.77;;
611;SDS011;293;53.888;11.464;2022-11-18T11:59:26;2.20;;;1.63;;
611;SDS011;293;53.888;11.464;2022-11-18T12:02:16;2.28;;;1.33;;
611;SDS011;293;53.888;11.464;2022-11-18T12:05:06;1.48;;;1.35;;
611;SDS011;293;53.888;11.464;2022-11-18T12:07:44;1.63;;;1.40;;
611;SDS011;293;53.888;11.464;2022-11-18T12:13:13;1.75;;;1.48;;
611;SDS011;293;53.888;11.464;2022-11-18T12:15:50;2.00;;;1.55;;
611;SDS011;293;53.888;11.464;2022-11-18T12:18:29;1.58;;;1.25;;
611;SDS011;293;53.888;11.464;2022-11-18T12:21:03;2.25;;;1.60;;
611;SDS011;293;53.888;11.464;2022-11-18T12:23:30;2.67;;;1.75;;
611;SDS011;293;53.888;11.464;2022-11-18T12:26:02;1.50;;;1.35;;
611;SDS011;293;53.888;11.464;2022-11-18T12:28:33;1.90;;;1.20;;
611;SDS011;293;53.888;11.464;2022-11-18T12:33:59;1.70;;;1.38;;
611;SDS011;293;53.888;11.464;2022-11-18T12:36:31;3.63;;;1.67;;
611;SDS011;293;53.888;11.464;2022-11-18T12:39:44;15.38;;;10.50;;
611;SDS011;293;53.888;11.464;2022-11-18T12:42:38;10.40;;;7.30;;
611;SDS011;293;53.888;11.464;2022-11-18T12:48:26;2.55;;;1.50;;
611;SDS011;293;53.888;11.464;2022-11-18T12:54:25;2.55;;;1.80;;
611;SDS011;293;53.888;11.464;2022-11-18T12:56:56;1.85;;;1.60;;
611;SDS011;293;53.888;11.464;2022-11-18T12:59:25;5.15;;;2.03;;
611;SDS011;293;53.888;11.464;2022-11-18T13:05:06;2.47;;;1.60;;
611;SDS011;293;53.888;11.464;2022-11-18T13:07:38;1.95;;;1.58;;
611;SDS011;293;53.888;11.464;2022-11-18T13:10:26;3.38;;;1.85;;
611;SDS011;293;53.888;11.464;2022-11-18T13:12:57;3.55;;;2.13;;
611;SDS011;293;53.888;11.464;2022-11-18T13:15:24;2.42;;;2.20;;
611;SDS011;293;53.888;11.464;2022-11-18T13:18:12;1.35;;;0.93;;
611;SDS011;293;53.888;11.464;2022-11-18T13:20:42;2.17;;;1.98;;
611;SDS011;293;53.888;11.464;2022-11-18T13:23:23;2.08;;;1.77;;
611;SDS011;293;53.888;11.464;2022-11-18T13:26:11;2.38;;;1.45;;
611;SDS011;293;53.888;11.464;2022-11-18T13:28:44;2.33;;;1.45;;
611;SDS011;293;53.888;11.464;2022-11-18T13:31:34;3.00;;;1.95;;
611;SDS011;293;53.888;11.464;2022-11-18T13:34:11;2.47;;;1.45;;
611;SDS011;293;53.888;11.464;2022-11-18T13:36:44;3.05;;;2.58;;
611;SDS011;293;53.888;11.464;2022-11-18T13:39:16;4.50;;;1.67;;
611;SDS011;293;53.888;11.464;2022-11-18T13:41:56;3.03;;;1.40;;
611;SDS011;293;53.888;11.464;2022-11-18T13:44:24;2.08;;;1.35;;
611;SDS011;293;53.888;11.464;2022-11-18T13:46:53;1.70;;;1.50;;
611;SDS011;293;53.888;11.464;2022-11-18T13:49:42;4.00;;;1.65;;
611;SDS011;293;53.888;11.464;2022-11-18T13:52:15;1.65;;;1.38;;
611;SDS011;293;53.888;11.464;2022-11-18T13:54:44;2.53;;;1.67;;
611;SDS011;293;53.888;11.464;2022-11-18T13:57:14;1.80;;;1.60;;
611;SDS011;293;53.888;11.464;2022-11-18T13:59:44;68.75;;;40.50;;
611;SDS011;293;53.888;11.464;2022-11-18T14:02:12;5.35;;;3.28;;
611;SDS011;293;53.888;11.464;2022-11-18T14:04:48;2.20;;;1.70;;
611;SDS011;293;53.888;11.464;2022-11-18T14:07:22;1.23;;;1.00;;
611;SDS011;293;53.888;11.464;2022-11-18T14:09:52;2.80;;;1.65;;
611;SDS011;293;53.888;11.464;2022-11-18T14:12:21;2.20;;;1.60;;
611;SDS011;293;53.888;11.464;2022-11-18T14:14:49;1.70;;;1.50;;
611;SDS011;293;53.888;11.464;2022-11-18T14:17:17;1.40;;;1.15;;
611;SDS011;293;53.888;11.464;2022-11-18T14:19:48;2.05;;;1.80;;
611;SDS011;293;53.888;11.464;2022-11-18T14:22:17;1.45;;;1.20;;
611;SDS011;293;53.888;11.464;2022-11-18T14:24:52;2.08;;;1.08;;
611;SDS011;293;53.888;11.464;2022-11-18T14:33:06;2.17;;;1.27;;
611;SDS011;293;53.888;11.464;2022-11-18T14:35:37;2.10;;;1.05;;
611;SDS011;293;53.888;11.464;2022-11-18T14:38:09;2.17;;;1.40;;
611;SDS011;293;53.888;11.464;2022-11-18T14:40:38;23.95;;;18.73;;
611;SDS011;293;53.888;11.464;2022-11-18T14:43:05;7.03;;;4.40;;
611;SDS011;293;53.888;11.464;2022-11-18T14:45:32;1.92;;;1.73;;
611;SDS011;293;53.888;11.464;2022-11-18T14:47:59;2.85;;;1.50;;
611;SDS011;293;53.888;11.464;2022-11-18T14:50:26;1.75;;;1.48;;
611;SDS011;293;53.888;11.464;2022-11-18T14:52:55;1.33;;;1.10;;
611;SDS011;293;53.888;11.464;2022-11-18T14:55:21;2.28;;;1.45;;
611;SDS011;293;53.888;11.464;2022-11-18T14:57:48;1.60;;;1.33;;
611;SDS011;293;53.888;11.464;2022-11-18T15:00:16;2.17;;;1.20;;
611;SDS011;293;53.888;11.464;2022-11-18T15:02:43;2.10;;;1.13;;
611;SDS011;293;53.888;11.464;2022-11-18T15:05:10;6.80;;;1.10;;
611;SDS011;293;53.888;11.464;2022-11-18T15:07:37;1.77;;;1.25;;
611;SDS011;293;53.888;11.464;2022-11-18T15:10:06;1.15;;;1.00;;
611;SDS011;293;53.888;11.464;2022-11-18T15:12:36;1.73;;;1.15;;
611;SDS011;293;53.888;11.464;2022-11-18T15:15:03;3.97;;;1.50;;
611;SDS011;293;53.888;11.464;2022-11-18T15:17:31;3.28;;;1.38;;
611;SDS011;293;53.888;11.464;2022-11-18T15:19:57;2.50;;;1.40;;
611;SDS011;293;53.888;11.464;2022-11-18T15:22:24;1.77;;;0.90;;
611;SDS011;293;53.888;11.464;2022-11-18T15:24:51;3.78;;;1.23;;
611;SDS011;293;53.888;11.464;2022-11-18T15:27:19;2.58;;;1.50;;
611;SDS011;293;53.888;11.464;2022-11-18T15:29:46;1.25;;;1.15;;
611;SDS011;293;53.888;11.464;2022-11-18T15:32:14;2.35;;;1.10;;
611;SDS011;293;53.888;11.464;2022-11-18T15:34:41;1.70;;;1.30;;
611;SDS011;293;53.888;11.464;2022-11-18T15:37:09;1.40;;;1.17;;
611;SDS011;293;53.888;11.464;2022-11-18T15:39:37;1.30;;;0.80;;
611;SDS011;293;53.888;11.464;2022-11-18T15:42:04;1.13;;;1.00;;
611;SDS011;293;53.888;11.464;2022-11-18T15:44:32;2.20;;;1.20;;
611;SDS011;293;53.888;11.464;2022-11-18T15:46:59;1.70;;;1.60;;
611;SDS011;293;53.888;11.464;2022-11-18T15:49:26;2.22;;;1.60;;
611;SDS011;293;53.888;11.464;2022-11-18T15:51:53;2.42;;;1.92;;
611;SDS011;293;53.888;11.464;2022-11-18T15:54:20;2.03;;;1.60;;
611;SDS011;293;53.888;11.464;2022-11-18T15:56:47;3.00;;;2.00;;
611;SDS011;293;53.888;11.464;2022-11-18T15:59:14;3.42;;;2.10;;
611;SDS011;293;53.888;11.464;2022-11-18T16:01:43;3.65;;;3.35;;
611;SDS011;293;53.888;11.464;2022-11-18T16:04:12;3.00;;;2.53;;
611;SDS011;293;53.888;11.464;2022-11-18T16:06:40;3.72;;;2.53;;